Time;durP1;ratioP1;P1;durP2;ratioP2;P2;SDS_P1;SDS_P2;PMS_P1;PMS_P2;Temp;Humidity;BMP_temperature;BMP_pressure;BME280_temperature;BME280_humidity;BME280_pressure;Samples;Min_cycle;Max_cycle;Signal;HPM_P1;HPM_P2
2022/10/07 00:01:00;;;;;;;22.50;11.93;;;;;;;10.47;100.00;100292.62;4271942;33;20380;-69
2022/10/07 00:03:32;;;;;;;30.73;11.85;;;;;;;10.26;100.00;100277.63;4279615;33;20045;-69
2022/10/07 00:06:12;;;;;;;27.30;11.70;;;;;;;10.30;100.00;100280.72;4280413;33;21324;-69
2022/10/07 00:08:40;;;;;;;25.88;11.07;;;;;;;10.48;100.00;100321.22;4278504;33;20045;-69
2022/10/07 00:11:11;;;;;;;24.73;11.45;;;;;;;10.45;100.00;100321.66;4265062;33;20026;-70
2022/10/07 00:13:39;;;;;;;27.52;12.88;;;;;;;10.25;100.00;100280.53;4266425;33;20041;-69
2022/10/07 00:16:27;;;;;;;21.58;12.00;;;;;;;10.53;100.00;100321.41;4282414;33;20041;-69
2022/10/07 00:18:56;;;;;;;20.80;11.73;;;;;;;10.52;100.00;100327.00;4293415;33;20166;-74
2022/10/07 00:21:24;;;;;;;24.23;11.70;;;;;;;10.48;100.00;100313.16;4281789;33;20079;-69
2022/10/07 00:23:51;;;;;;;23.12;12.15;;;;;;;10.54;100.00;100319.50;4287509;33;20056;-68
2022/10/07 00:26:22;;;;;;;26.77;11.45;;;;;;;10.49;100.00;100328.25;4288030;33;20107;-69
2022/10/07 00:28:50;;;;;;;19.15;11.20;;;;;;;10.23;100.00;100288.00;4273768;33;20338;-70
2022/10/07 00:31:20;;;;;;;26.08;13.30;;;;;;;10.40;100.00;100315.25;4250808;33;20096;-69
2022/10/07 00:33:47;;;;;;;20.33;11.80;;;;;;;10.09;100.00;100279.19;4252220;33;20033;-69
2022/10/07 00:36:22;;;;;;;18.05;10.13;;;;;;;10.18;100.00;100278.72;4252784;33;20077;-68
2022/10/07 00:38:56;;;;;;;30.37;12.25;;;;;;;10.39;100.00;100310.91;4236449;33;20031;-69
2022/10/07 00:41:25;;;;;;;23.48;11.15;;;;;;;10.43;100.00;100326.41;4238434;33;20458;-69
2022/10/07 00:43:51;;;;;;;26.90;11.40;;;;;;;10.42;100.00;100314.00;4238607;33;20030;-69
2022/10/07 00:46:37;;;;;;;20.42;10.75;;;;;;;10.51;100.00;100320.78;4247067;33;20052;-69
2022/10/07 00:49:09;;;;;;;28.10;10.30;;;;;;;10.25;100.00;100277.84;4223182;34;20069;-69
2022/10/07 00:51:37;;;;;;;18.95;10.75;;;;;;;10.45;100.00;100300.12;4210285;34;20504;-70
2022/10/07 00:54:10;;;;;;;28.12;12.30;;;;;;;10.57;100.00;100313.69;4200327;34;20075;-73
2022/10/07 00:56:38;;;;;;;;;;;;;;;10.09;100.00;100228.88;4207802;34;20361;-68
2022/10/07 00:59:05;;;;;;;20.83;11.65;;;;;;;10.57;100.00;100320.97;4214542;33;19951;-66
2022/10/07 01:01:32;;;;;;;25.98;11.68;;;;;;;10.42;100.00;100305.94;4236595;33;20030;-69
2022/10/07 01:03:58;;;;;;;24.55;11.93;;;;;;;10.54;100.00;100314.94;4238263;33;20412;-68
2022/10/07 01:06:25;;;;;;;26.77;13.82;;;;;;;10.47;100.00;100314.19;4236103;33;20038;-74
2022/10/07 01:08:53;;;;;;;29.83;12.35;;;;;;;10.33;100.00;100310.75;4240117;33;20069;-69
2022/10/07 01:11:22;;;;;;;23.38;12.68;;;;;;;10.32;100.00;100303.72;4265571;33;20173;-68
2022/10/07 01:14:14;;;;;;;22.08;12.40;;;;;;;10.17;100.00;100285.13;4271838;33;20385;-68
2022/10/07 01:16:50;;;;;;;25.52;12.23;;;;;;;10.30;100.00;100303.06;4280494;33;20146;-69
2022/10/07 01:19:41;;;;;;;24.63;13.68;;;;;;;10.18;100.00;100278.72;4291406;33;20059;-69
2022/10/07 01:22:28;;;;;;;31.10;13.62;;;;;;;10.38;100.00;100307.41;4295174;33;20071;-68
2022/10/07 01:25:14;;;;;;;26.35;13.07;;;;;;;10.03;100.00;100259.34;4305027;33;20457;-68
2022/10/07 01:27:48;;;;;;;32.28;13.73;;;;;;;9.96;100.00;100263.94;4279774;33;20141;-68
2022/10/07 01:30:16;;;;;;;33.00;13.90;;;;;;;9.85;100.00;100251.19;4287577;33;20077;-68
2022/10/07 01:32:44;;;;;;;24.83;13.68;;;;;;;9.86;100.00;100258.19;4291708;33;20059;-68
2022/10/07 01:35:17;;;;;;;32.70;14.87;;;;;;;10.16;100.00;100302.34;4291400;33;20029;-67
2022/10/07 01:41:18;;;;;;;21.33;12.48;;;;;;;10.12;100.00;100303.78;4289477;33;20070;-68
2022/10/07 01:43:45;;;;;;;;;;;;;;;10.24;100.00;100297.72;4285491;33;20106;-70
2022/10/07 01:46:17;;;;;;;27.85;12.90;;;;;;;10.34;100.00;100298.94;4274620;33;19941;-68
2022/10/07 01:48:45;;;;;;;43.58;15.57;;;;;;;10.38;100.00;100301.19;4291038;33;20405;-69
2022/10/07 01:51:13;;;;;;;45.03;20.25;;;;;;;10.13;100.00;100305.47;4291089;33;20067;-69
2022/10/07 01:53:48;;;;;;;43.13;18.23;;;;;;;10.38;100.00;100304.72;4278950;33;20207;-68
2022/10/07 01:56:33;;;;;;;27.87;15.63;;;;;;;10.24;100.00;100311.19;4254079;33;20080;-68
2022/10/07 01:59:16;;;;;;;32.15;14.20;;;;;;;10.76;100.00;100295.72;4256552;33;20056;-68
2022/10/07 02:02:16;;;;;;;27.20;14.00;;;;;;;10.69;100.00;100297.63;4242942;33;20057;-68
2022/10/07 02:04:48;;;;;;;26.30;12.77;;;;;;;10.64;100.00;100290.25;4239930;33;20477;-72
2022/10/07 02:07:39;;;;;;;25.17;14.63;;;;;;;10.65;100.00;100304.53;4264163;33;20077;-69
2022/10/07 02:10:24;;;;;;;26.27;13.27;;;;;;;10.40;100.00;100297.22;4265868;33;20056;-69
2022/10/07 02:13:05;;;;;;;29.15;15.02;;;;;;;10.27;100.00;100298.13;4267409;33;20081;-69
2022/10/07 02:15:41;;;;;;;29.10;13.93;;;;;;;9.67;100.00;100297.59;4246107;33;20428;-69
2022/10/07 02:18:14;;;;;;;32.30;14.30;;;;;;;10.02;100.00;100295.38;4243055;33;20038;-69
2022/10/07 02:20:44;;;;;;;22.60;12.25;;;;;;;10.21;100.00;100292.78;4251379;33;20063;-69
2022/10/07 02:23:14;;;;;;;28.77;12.52;;;;;;;10.31;100.00;100290.44;4251831;33;20063;-69
2022/10/07 02:25:45;;;;;;;23.42;12.40;;;;;;;10.43;100.00;100286.03;4258247;33;20068;-73
2022/10/07 02:28:14;;;;;;;29.48;13.02;;;;;;;10.08;100.00;100235.28;4260466;33;21019;-69
2022/10/07 02:30:48;;;;;;;25.62;12.82;;;;;;;10.13;100.00;100248.09;4265249;33;20063;-69
2022/10/07 02:33:16;;;;;;;22.23;11.18;;;;;;;10.17;100.00;100262.78;4265620;33;20045;-73
2022/10/07 02:35:53;;;;;;;26.25;11.85;;;;;;;9.95;100.00;100230.00;4250814;33;20038;-69
2022/10/07 02:38:26;;;;;;;26.90;12.13;;;;;;;10.23;100.00;100279.91;4249592;33;20064;-69
2022/10/07 02:41:30;;;;;;;23.55;14.13;;;;;;;10.18;100.00;100278.72;4246163;33;20064;-69
2022/10/07 02:44:02;;;;;;;28.58;15.50;;;;;;;10.16;100.00;100280.81;4243566;33;20429;-69
2022/10/07 02:46:37;;;;;;;34.53;16.58;;;;;;;9.93;100.00;100232.09;4208711;34;20047;-72
2022/10/07 02:49:06;;;;;;;34.50;15.88;;;;;;;9.88;100.00;100224.66;4214587;34;20047;-69
2022/10/07 02:51:58;;;;;;;30.05;15.27;;;;;;;10.17;100.00;100266.28;4219629;33;20072;-69
2022/10/07 02:54:34;;;;;;;27.42;15.70;;;;;;;10.60;100.00;100286.31;4206386;34;20047;-71
2022/10/07 02:57:04;;;;;;;26.20;14.68;;;;;;;10.63;100.00;100274.31;4207071;34;20061;-69
2022/10/07 02:59:33;;;;;;;25.92;13.10;;;;;;;10.80;100.00;100279.94;4209044;34;20035;-69
2022/10/07 03:02:02;;;;;;;20.15;10.60;;;;;;;11.05;100.00;100271.84;4206707;34;20053;-73
2022/10/07 03:04:29;;;;;;;19.20;10.90;;;;;;;10.72;100.00;100232.56;4209425;34;20059;-69
2022/10/07 03:06:57;;;;;;;22.02;12.27;;;;;;;10.89;100.00;100268.66;4214652;33;20028;-69
2022/10/07 03:09:30;;;;;;;29.33;10.43;;;;;;;10.82;100.00;100273.31;4230706;33;20094;-69
2022/10/07 03:11:57;;;;;;;28.02;12.27;;;;;;;10.43;100.00;100234.88;4232942;33;20038;-69
2022/10/07 03:14:23;;;;;;;22.77;10.55;;;;;;;10.62;100.00;100272.66;4222552;33;20117;-68
2022/10/07 03:16:53;;;;;;;34.15;11.77;;;;;;;10.31;100.00;100223.16;4223835;33;20082;-68
2022/10/07 03:19:20;;;;;;;19.90;12.00;;;;;;;10.45;100.00;100240.87;4236985;33;20043;-68
2022/10/07 03:21:47;;;;;;;29.37;13.62;;;;;;;10.34;100.00;100228.13;4236963;33;20471;-70
2022/10/07 03:24:16;;;;;;;27.77;11.90;;;;;;;10.49;100.00;100269.00;4264658;33;20069;-68
2022/10/07 03:26:43;;;;;;;27.13;11.40;;;;;;;10.21;100.00;100260.47;4279240;33;20030;-68
2022/10/07 03:29:12;;;;;;;19.37;11.45;;;;;;;10.24;100.00;100249.28;4253408;33;20039;-68
2022/10/07 03:31:41;;;;;;;25.27;12.30;;;;;;;9.65;100.00;100252.06;4248640;33;20476;-73
2022/10/07 03:34:08;;;;;;;29.95;13.23;;;;;;;9.67;100.00;100266.16;4266447;33;20189;-69
2022/10/07 03:36:35;;;;;;;27.62;12.45;;;;;;;9.08;100.00;100207.00;4256524;33;20074;-69
2022/10/07 03:39:03;;;;;;;25.25;12.63;;;;;;;9.57;100.00;100257.69;4267554;33;20101;-68
2022/10/07 03:41:30;;;;;;;25.30;13.77;;;;;;;9.27;100.00;100212.53;4278841;33;20033;-73
2022/10/07 03:43:57;;;;;;;32.17;13.55;;;;;;;9.25;100.00;100214.59;4289315;33;20041;-68
2022/10/07 03:46:24;;;;;;;26.80;12.60;;;;;;;9.27;100.00;100244.78;4296127;33;20040;-68
2022/10/07 03:48:51;;;;;;;72.57;24.77;;;;;;;9.30;100.00;100249.72;4267258;33;20030;-69
2022/10/07 03:51:18;;;;;;;101.82;27.42;;;;;;;9.63;100.00;100251.47;4253966;33;20042;-70
2022/10/07 03:53:44;;;;;;;84.93;24.25;;;;;;;9.66;100.00;100252.91;4251564;33;20147;-74
2022/10/07 03:56:11;;;;;;;435.02;97.43;;;;;;;9.60;100.00;100249.22;4250468;33;20132;-69
2022/10/07 03:58:38;;;;;;;356.87;77.07;;;;;;;9.70;100.00;100203.88;4249419;33;20438;-70
2022/10/07 04:01:07;;;;;;;332.95;70.30;;;;;;;10.14;100.00;100247.88;4249212;33;20102;-69
2022/10/07 04:03:35;;;;;;;265.75;61.50;;;;;;;9.92;100.00;100208.91;4237162;33;20123;-73
2022/10/07 04:06:02;;;;;;;217.98;55.72;;;;;;;10.18;100.00;100241.03;4239280;33;20397;-69
2022/10/07 04:08:36;;;;;;;174.87;42.47;;;;;;;9.91;100.00;100207.28;4238946;33;20115;-69
2022/10/07 04:11:04;;;;;;;149.27;37.75;;;;;;;9.81;100.00;100195.12;4239200;33;20031;-69
2022/10/07 04:13:30;;;;;;;151.12;39.33;;;;;;;9.86;100.00;100204.38;4235976;33;20030;-70
2022/10/07 04:15:57;;;;;;;157.73;44.00;;;;;;;9.93;100.00;100235.59;4255015;33;20072;-68
2022/10/07 04:18:25;;;;;;;151.52;43.30;;;;;;;9.57;100.00;100190.47;4264488;33;20072;-68
2022/10/07 04:20:51;;;;;;;111.47;33.22;;;;;;;9.92;100.00;100241.19;4301816;33;20037;-69
2022/10/07 04:23:18;;;;;;;117.00;34.72;;;;;;;9.99;100.00;100237.44;4310156;33;20197;-72
2022/10/07 04:25:46;;;;;;;43.30;16.17;;;;;;;10.06;100.00;100241.94;4307194;33;20076;-73
2022/10/07 04:28:21;;;;;;;33.58;14.35;;;;;;;10.06;100.00;100233.87;4310759;33;20071;-69
2022/10/07 04:30:50;;;;;;;36.13;13.32;;;;;;;9.78;100.00;100187.47;4322999;33;20048;-70
2022/10/07 04:33:18;;;;;;;34.20;14.32;;;;;;;9.76;100.00;100184.16;4325617;33;20066;-68
2022/10/07 04:35:44;;;;;;;27.25;14.02;;;;;;;9.98;100.00;100224.19;4323146;33;20431;-68
2022/10/07 04:38:14;;;;;;;39.58;17.40;;;;;;;9.91;100.00;100218.03;4310926;33;21017;-68
2022/10/07 04:40:46;;;;;;;39.70;16.02;;;;;;;9.64;100.00;100164.38;4295522;33;20025;-69
2022/10/07 04:43:21;;;;;;;38.97;15.15;;;;;;;9.98;100.00;100224.19;4296154;33;20045;-68
2022/10/07 04:45:53;;;;;;;32.08;13.95;;;;;;;9.71;100.00;100175.91;4293271;33;20107;-68
2022/10/07 04:48:22;;;;;;;28.35;12.70;;;;;;;9.69;100.00;100183.37;4265466;33;20060;-68
2022/10/07 04:50:51;;;;;;;28.52;13.40;;;;;;;9.63;100.00;100168.09;4265344;33;20042;-69
2022/10/07 04:53:18;;;;;;;24.00;12.25;;;;;;;9.69;100.00;100172.63;4263753;33;20045;-69
2022/10/07 04:55:50;;;;;;;28.65;12.90;;;;;;;9.58;100.00;100160.69;4197579;34;20086;-68
2022/10/07 04:58:18;;;;;;;34.85;14.30;;;;;;;9.81;100.00;100208.56;4197909;34;20043;-68
2022/10/07 05:00:48;;;;;;;29.33;14.63;;;;;;;9.47;100.00;100174.00;4197126;34;20073;-68
2022/10/07 05:03:18;;;;;;;32.85;12.30;;;;;;;10.05;100.00;100214.22;4194896;34;20080;-69
2022/10/07 05:05:47;;;;;;;30.05;13.45;;;;;;;10.17;100.00;100217.84;4196477;34;20051;-69
2022/10/07 05:08:16;;;;;;;23.75;12.27;;;;;;;10.15;100.00;100217.25;4197488;34;20075;-69
2022/10/07 05:10:43;;;;;;;21.65;12.40;;;;;;;10.03;100.00;100204.72;4211355;33;20112;-69
2022/10/07 05:13:14;;;;;;;26.95;12.07;;;;;;;9.71;100.00;100207.38;4222073;34;20082;-69
2022/10/07 05:15:55;;;;;;;21.05;11.65;;;;;;;10.00;100.00;100211.34;4223171;33;20067;-71
2022/10/07 05:18:25;;;;;;;24.63;11.50;;;;;;;10.05;100.00;100213.37;4245973;33;20079;-68
2022/10/07 05:20:53;;;;;;;28.75;10.68;;;;;;;9.91;100.00;100207.28;4258444;33;20173;-73
2022/10/07 05:23:22;;;;;;;29.80;12.35;;;;;;;9.60;100.00;100168.53;4266652;33;20386;-70
2022/10/07 05:26:00;;;;;;;27.45;12.37;;;;;;;9.61;100.00;100194.41;4254988;33;20046;-70
2022/10/07 05:28:28;;;;;;;25.37;13.62;;;;;;;9.95;100.00;100213.84;4267754;33;20029;-69
2022/10/07 05:31:11;;;;;;;31.45;13.52;;;;;;;10.05;100.00;100211.53;4268669;33;20046;-70
2022/10/07 05:33:38;;;;;;;31.02;12.75;;;;;;;10.26;100.00;100206.81;4263323;33;20033;-69
2022/10/07 05:36:07;;;;;;;21.58;12.63;;;;;;;10.06;100.00;100198.88;4252225;33;20038;-69
2022/10/07 05:38:35;;;;;;;24.00;12.65;;;;;;;10.23;100.00;100167.72;4249935;33;20077;-69
2022/10/07 05:41:06;;;;;;;23.25;10.50;;;;;;;10.32;100.00;100152.09;4255867;33;20046;-69
2022/10/07 05:43:35;;;;;;;31.12;12.45;;;;;;;10.39;100.00;100193.28;4264100;33;20038;-68
2022/10/07 05:46:08;;;;;;;21.15;11.55;;;;;;;10.60;100.00;100215.50;4250331;33;20064;-68
2022/10/07 05:48:37;;;;;;;24.27;11.20;;;;;;;10.44;100.00;100200.72;4263177;33;20432;-74
2022/10/07 05:51:03;;;;;;;29.48;11.70;;;;;;;10.25;100.00;100203.28;4264825;33;20065;-68
2022/10/07 05:53:30;;;;;;;18.35;11.52;;;;;;;10.32;100.00;100201.44;4267261;33;20046;-69
2022/10/07 05:55:57;;;;;;;32.90;11.70;;;;;;;10.16;100.00;100162.37;4272245;33;20037;-69
2022/10/07 05:58:24;;;;;;;20.70;10.65;;;;;;;10.49;100.00;100172.06;4278813;33;20157;-68
2022/10/07 06:00:56;;;;;;;25.02;12.10;;;;;;;10.83;100.00;100194.13;4257134;33;20046;-69
2022/10/07 06:03:27;;;;;;;30.92;11.52;;;;;;;11.04;100.00;100211.75;4251852;33;20069;-69
2022/10/07 06:05:54;;;;;;;35.85;12.52;;;;;;;11.23;100.00;100207.19;4231368;33;20075;-69
2022/10/07 06:08:22;;;;;;;19.33;11.27;;;;;;;10.94;100.00;100151.31;4236056;33;20428;-74
2022/10/07 06:13:37;;;;;;;20.20;11.20;;;;;;;11.01;100.00;100168.22;4229364;33;20086;-69
2022/10/07 06:16:08;;;;;;;25.10;11.48;;;;;;;11.18;100.00;100195.41;4222764;33;20473;-71
2022/10/07 06:18:35;;;;;;;27.58;11.00;;;;;;;11.39;100.00;100208.44;4238721;33;20060;-68
2022/10/07 06:21:02;;;;;;;29.30;10.55;;;;;;;11.30;100.00;100182.00;4240340;33;20079;-70
2022/10/07 06:23:30;;;;;;;22.23;10.30;;;;;;;11.52;100.00;100199.34;4249210;33;20060;-68
2022/10/07 06:26:00;;;;;;;22.62;11.10;;;;;;;11.28;100.00;100166.06;4246125;33;20072;-69
2022/10/07 06:28:32;;;;;;;21.77;11.23;;;;;;;11.57;100.00;100204.88;4227763;33;20047;-69
2022/10/07 06:31:06;;;;;;;23.62;11.25;;;;;;;11.67;100.00;100198.94;4237212;33;20038;-69
2022/10/07 06:33:33;;;;;;;27.35;12.93;;;;;;;11.50;100.00;100198.75;4237963;33;20185;-69
2022/10/07 06:36:03;;;;;;;22.70;12.15;;;;;;;11.67;100.00;100207.03;4240969;33;20421;-74
2022/10/07 06:38:30;;;;;;;24.35;12.15;;;;;;;11.48;100.00;100163.09;4278794;33;20052;-69
2022/10/07 06:41:00;;;;;;;33.03;11.50;;;;;;;11.54;100.00;100205.34;4276186;33;20067;-70
2022/10/07 06:43:29;;;;;;;31.17;11.25;;;;;;;12.10;100.00;100197.13;4253752;33;20063;-70
2022/10/07 06:45:57;;;;;;;26.60;11.00;;;;;;;12.26;100.00;100203.75;4251704;33;20423;-70
2022/10/07 06:48:24;;;;;;;26.67;10.98;;;;;;;12.65;100.00;100204.97;4254292;33;20159;-70
2022/10/07 06:50:53;;;;;;;22.37;10.55;;;;;;;12.43;100.00;100157.94;4242176;33;20522;-70
2022/10/07 06:53:22;;;;;;;30.80;10.80;;;;;;;12.56;100.00;100156.88;4256314;33;20062;-70
2022/10/07 06:55:53;;;;;;;22.83;10.55;;;;;;;13.04;100.00;100201.75;4249387;33;20067;-70
2022/10/07 06:58:20;;;;;;;;;;;;;;;12.72;100.00;100162.41;4220888;33;20090;-69
2022/10/07 07:00:51;;;;;;;30.62;9.65;;;;;;;12.93;100.00;100200.72;4219292;34;20089;-70
2022/10/07 07:03:21;;;;;;;20.37;7.82;;;;;;;13.25;100.00;100197.59;4221295;34;20212;-70
2022/10/07 07:05:47;;;;;;;23.00;9.00;;;;;;;13.41;100.00;100202.28;4226513;33;20072;-69
2022/10/07 07:08:15;;;;;;;23.40;7.68;;;;;;;13.62;100.00;100202.69;4236344;33;20046;-69
2022/10/07 07:10:43;;;;;;;14.23;7.12;;;;;;;13.54;100.00;100212.00;4240153;33;20031;-68
2022/10/07 07:13:11;;;;;;;15.00;7.03;;;;;;;13.73;100.00;100204.53;4239103;33;20061;-69
2022/10/07 07:15:38;;;;;;;23.23;6.75;;;;;;;13.74;100.00;100194.53;4242209;33;20046;-70
2022/10/07 07:18:08;;;;;;;13.60;7.90;;;;;;;13.50;100.00;100172.16;4239383;33;20075;-70
2022/10/07 07:20:38;;;;;;;17.90;6.97;;;;;;;14.03;100.00;100213.47;4237498;33;20184;-70
2022/10/07 07:23:09;;;;;;;19.95;7.40;;;;;;;13.63;100.00;100198.94;4258877;33;20068;-71
2022/10/07 07:25:38;;;;;;;14.23;5.85;;;;;;;13.48;100.00;100206.75;4251849;33;20210;-73
2022/10/07 07:28:06;;;;;;;19.48;8.07;;;;;;;13.99;100.00;100173.34;4253806;33;20125;-70
2022/10/07 07:30:33;;;;;;;11.73;6.30;;;;;;;14.42;100.00;100206.25;4265169;33;20034;-69
2022/10/07 07:33:00;;;;;;;12.63;6.43;;;;;;;13.90;100.00;100209.19;4254371;33;20072;-70
2022/10/07 07:35:31;;;;;;;14.27;5.37;;;;;;;13.87;100.00;100156.34;4251110;33;20030;-73
2022/10/07 07:37:58;;;;;;;10.43;5.22;;;;;;;14.17;100.00;100145.19;4254195;33;20076;-70
2022/10/07 07:40:26;;;;;;;11.52;4.90;;;;;;;14.51;100.00;100166.84;4253429;33;20103;-71
2022/10/07 07:42:56;;;;;;;15.75;4.97;;;;;;;14.58;100.00;100198.38;4253599;33;20046;-69
2022/10/07 07:45:23;;;;;;;10.00;5.28;;;;;;;14.64;100.00;100202.84;4250513;33;20070;-74
2022/10/07 07:47:51;;;;;;;13.40;4.72;;;;;;;14.74;100.00;100203.00;4224015;34;20102;-70
2022/10/07 07:50:19;;;;;;;16.65;4.12;;;;;;;14.51;100.00;100198.56;4224359;34;20031;-71
2022/10/07 07:52:46;;;;;;;19.98;4.45;;;;;;;14.50;100.00;100203.16;4238329;33;20058;-70
2022/10/07 07:55:13;;;;;;;15.23;4.12;;;;;;;14.54;100.00;100193.47;4237039;33;20084;-74
2022/10/07 07:57:41;;;;;;;11.75;5.00;;;;;;;14.51;100.00;100185.81;4236012;33;20075;-71
2022/10/07 08:00:10;;;;;;;10.20;4.20;;;;;;;14.68;100.00;100182.31;4237052;33;20497;-74
2022/10/07 08:02:41;;;;;;;19.33;4.50;;;;;;;14.28;100.00;100183.28;4240074;33;20057;-70
2022/10/07 08:05:09;;;;;;;7.22;3.90;;;;;;;14.10;100.00;100095.78;4252702;33;20039;-73
2022/10/07 08:07:35;;;;;;;9.73;4.00;;;;;;;15.15;100.00;100187.28;4251586;33;20139;-70
2022/10/07 08:10:02;;;;;;;11.43;4.07;;;;;;;15.00;100.00;100179.78;4261078;33;20049;-70
2022/10/07 08:12:31;;;;;;;11.27;4.53;;;;;;;15.30;100.00;100161.41;4258763;33;20092;-70
2022/10/07 08:14:57;;;;;;;5.87;3.62;;;;;;;14.93;100.00;100183.75;4236685;33;20026;-70
2022/10/07 08:17:24;;;;;;;14.15;3.97;;;;;;;14.74;100.00;100148.78;4242246;33;20053;-70
2022/10/07 08:19:51;;;;;;;8.20;4.07;;;;;;;14.66;100.00;100138.38;4277299;33;20049;-70
2022/10/07 08:22:17;;;;;;;7.35;3.87;;;;;;;15.14;100.00;100176.69;4281161;33;20387;-70
2022/10/07 08:24:44;;;;;;;10.20;4.22;;;;;;;15.14;100.00;100169.41;4279371;33;20417;-71
2022/10/07 08:27:13;;;;;;;9.70;4.22;;;;;;;15.00;100.00;100152.66;4281709;33;20063;-71
2022/10/07 08:29:39;;;;;;;6.62;3.47;;;;;;;15.35;100.00;100142.47;4249202;33;20108;-69
2022/10/07 08:32:05;;;;;;;7.87;3.25;;;;;;;15.34;100.00;100162.56;4249604;33;20049;-71
2022/10/07 08:34:32;;;;;;;6.18;4.12;;;;;;;15.54;100.00;100160.09;4250291;33;20077;-70
2022/10/07 08:36:58;;;;;;;10.20;3.47;;;;;;;15.34;100.00;100162.56;4250254;33;20496;-70
2022/10/07 08:39:26;;;;;;;12.10;3.72;;;;;;;16.21;100.00;100166.19;4248999;33;20030;-72
2022/10/07 08:42:12;;;;;;;10.65;3.92;;;;;;;16.56;100.00;100156.66;4236798;33;20063;-71
2022/10/07 08:44:41;;;;;;;8.30;3.05;;;;;;;16.61;100.00;100164.84;4236214;33;20053;-72
2022/10/07 08:47:20;;;;;;;12.48;3.25;;;;;;;16.20;100.00;100148.22;4233498;33;20042;-71
2022/10/07 08:49:55;;;;;;;11.90;3.70;;;;;;;16.94;100.00;100153.91;4236245;33;20073;-70
2022/10/07 08:52:32;;;;;;;7.60;3.55;;;;;;;17.04;100.00;100146.59;4244355;33;20071;-71
2022/10/07 08:55:00;;;;;;;7.82;3.80;;;;;;;17.15;100.00;100141.19;4251967;33;20139;-71
2022/10/07 08:57:36;;;;;;;15.50;3.22;;;;;;;17.25;100.00;100152.13;4251806;33;20175;-69
2022/10/07 09:00:05;;;;;;;6.82;3.10;;;;;;;17.11;100.00;100148.28;4250685;33;20146;-74
2022/10/07 09:02:57;;;;;;;13.35;4.12;;;;;;;16.99;100.00;100133.00;4251976;33;20066;-71
2022/10/07 09:05:28;;;;;;;5.45;3.60;;;;;;;16.97;100.00;100102.50;4251440;33;20034;-70
2022/10/07 09:07:56;;;;;;;;;;;;;;;17.47;100.00;100134.75;4248805;33;20042;-70
2022/10/07 09:10:27;;;;;;;7.07;3.65;;;;;;;17.67;100.00;100137.53;4250410;33;20042;-71
2022/10/07 09:13:03;;;;;;;6.72;2.78;;;;;;;16.45;100.00;100114.16;4261624;33;20403;-70
2022/10/07 09:15:42;;;;;;;8.05;3.12;;;;;;;16.46;100.00;100129.38;4270996;33;20113;-73
2022/10/07 09:18:38;;;;;;;9.07;3.03;;;;;;;16.39;100.00;100085.31;4275547;33;20034;-70
2022/10/07 09:21:15;;;;;;;7.32;3.50;;;;;;;17.28;100.00;100127.12;4287187;33;20041;-70
2022/10/07 09:23:42;;;;;;;5.55;3.00;;;;;;;17.17;100.00;100122.72;4304062;33;20084;-72
2022/10/07 09:26:11;;;;;;;7.95;2.95;;;;;;;17.60;100.00;100123.38;4303766;33;20094;-70
2022/10/07 09:28:37;;;;;;;13.27;3.03;;;;;;;17.35;100.00;100070.50;4286561;33;20443;-73
2022/10/07 09:31:04;;;;;;;7.65;2.70;;;;;;;17.72;100.00;100104.84;4289381;33;20080;-69
2022/10/07 09:33:40;;;;;;;7.53;2.20;;;;;;;17.12;100.00;100088.16;4288680;33;20104;-70
2022/10/07 09:36:09;;;;;;;4.07;2.35;;;;;;;17.62;100.00;100102.94;4290499;33;20059;-71
2022/10/07 09:38:43;;;;;;;10.20;2.47;;;;;;;17.22;100.00;100087.34;4285059;33;20068;-70
2022/10/07 09:41:23;;;;;;;7.40;2.42;;;;;;;17.10;100.00;100094.94;4293848;33;20062;-69
2022/10/07 09:44:20;;;;;;;2.75;1.87;;;;;;;17.19;100.00;100104.22;4292760;33;20044;-69
2022/10/07 09:46:50;;;;;;;8.32;2.10;;;;;;;18.33;100.00;100108.69;4292116;33;20076;-71
2022/10/07 09:49:29;;;;;;;3.17;2.03;;;;;;;17.71;100.00;100100.50;4294206;33;20033;-71
2022/10/07 09:52:04;;;;;;;10.07;2.40;;;;;;;17.73;100.00;100098.31;4287152;33;20038;-70
2022/10/07 09:54:34;;;;;;;3.47;1.98;;;;;;;18.26;99.13;100083.63;4286194;33;21396;-70
2022/10/07 09:57:04;;;;;;;5.32;2.17;;;;;;;17.90;100.00;100086.38;4287015;33;20185;-69
2022/10/07 09:59:33;;;;;;;4.10;2.00;;;;;;;18.12;98.08;100084.19;4293336;33;20040;-70
2022/10/07 10:02:12;;;;;;;3.30;2.00;;;;;;;17.41;100.00;100063.97;4328023;33;20209;-69
2022/10/07 10:04:49;;;;;;;4.55;2.72;;;;;;;17.76;96.70;100043.31;4323729;33;20049;-70
2022/10/07 10:07:27;;;;;;;5.15;1.70;;;;;;;17.82;99.20;100073.28;4321031;33;20073;-70
2022/10/07 10:09:57;;;;;;;2.90;1.70;;;;;;;17.96;100.00;100053.41;4319984;33;20063;-69
2022/10/07 10:12:24;;;;;;;3.97;2.10;;;;;;;17.86;97.82;100033.50;4293731;33;20432;-69
2022/10/07 10:14:58;;;;;;;8.13;1.52;;;;;;;17.12;100.00;100032.88;4289370;33;20032;-76
2022/10/07 10:17:27;;;;;;;5.78;2.92;;;;;;;18.16;97.33;100027.22;4290712;33;20239;-70
2022/10/07 10:19:55;;;;;;;2.97;1.62;;;;;;;18.48;96.31;100054.13;4292129;33;20048;-70
2022/10/07 10:22:27;;;;;;;7.65;2.20;;;;;;;18.27;96.86;100058.00;4291888;33;20055;-69
2022/10/07 10:27:56;;;;;;;3.83;2.08;;;;;;;18.96;87.92;100003.78;4293949;33;20427;-69
2022/10/07 10:30:23;;;;;;;4.85;1.62;;;;;;;18.05;94.41;99990.19;4290644;33;20049;-75
2022/10/07 10:33:51;;;;;;;3.17;1.50;;;;;;;19.02;91.01;100025.28;4287932;33;20063;-70
2022/10/07 10:36:27;;;;;;;5.03;2.00;;;;;;;19.28;93.47;100029.78;4250109;33;20119;-69
2022/10/07 10:39:00;;;;;;;3.45;1.50;;;;;;;18.87;92.33;100023.47;4274141;33;20033;-69
2022/10/07 10:41:34;;;;;;;8.15;1.87;;;;;;;18.80;87.19;100022.91;4274940;33;20065;-68
2022/10/07 10:44:22;;;;;;;5.40;1.60;;;;;;;18.00;92.77;99985.56;4293421;33;20032;-69
2022/10/07 10:46:58;;;;;;;5.90;1.48;;;;;;;18.77;93.75;100014.47;4296280;33;20380;-75
2022/10/07 10:49:33;;;;;;;3.12;1.83;;;;;;;18.88;87.74;100005.19;4299443;33;20045;-72
2022/10/07 10:52:18;;;;;;;4.05;2.03;;;;;;;18.97;89.21;100005.38;4310222;33;20405;-69
2022/10/07 10:54:56;;;;;;;4.80;1.73;;;;;;;19.14;90.44;100011.28;4309641;33;20049;-71
2022/10/07 10:57:35;;;;;;;3.25;1.80;;;;;;;18.91;84.82;99962.84;4306510;33;20048;-69
2022/10/07 11:00:14;;;;;;;2.62;1.65;;;;;;;19.88;85.22;99992.19;4310262;33;20391;-69
2022/10/07 11:02:47;;;;;;;2.00;1.60;;;;;;;19.44;79.33;99954.84;4316473;33;20060;-69
2022/10/07 11:05:23;;;;;;;8.00;2.33;;;;;;;19.51;84.64;99962.69;4313636;33;20058;-71
2022/10/07 11:08:16;;;;;;;5.82;2.70;;;;;;;19.18;83.34;99949.59;4280583;33;20037;-73
2022/10/07 11:10:42;;;;;;;;;;;;;;;19.51;84.19;99966.22;4290329;33;20026;-70
2022/10/07 11:13:12;;;;;;;6.80;1.77;;;;;;;19.81;81.89;99969.81;4299500;33;19940;-70
2022/10/07 11:15:44;;;;;;;4.03;2.22;;;;;;;20.01;76.10;99929.72;4292373;33;20063;-76
2022/10/07 11:18:23;;;;;;;1.48;1.42;;;;;;;19.91;75.06;99956.06;4285412;33;20225;-69
2022/10/07 11:20:50;;;;;;;4.15;1.62;;;;;;;19.59;80.34;99946.50;4284023;33;20059;-69
2022/10/07 11:23:29;;;;;;;4.03;1.98;;;;;;;19.92;74.16;99916.69;4266612;33;20077;-69
2022/10/07 11:26:11;;;;;;;7.97;2.35;;;;;;;20.23;76.37;99942.84;4252634;33;20171;-70
2022/10/07 11:28:41;;;;;;;5.20;1.70;;;;;;;19.00;84.59;99944.78;4246396;33;20054;-68
2022/10/07 11:31:17;;;;;;;2.30;2.08;;;;;;;20.46;73.87;99935.75;4238605;33;20406;-75
2022/10/07 11:34:03;;;;;;;6.40;2.28;;;;;;;19.98;75.99;99897.53;4237971;33;21095;-69
2022/10/07 11:36:44;;;;;;;4.85;1.75;;;;;;;18.69;82.45;99887.69;4236648;33;20034;-68
2022/10/07 11:39:10;;;;;;;4.68;1.50;;;;;;;18.98;82.08;99887.75;4243046;33;20775;-69